Airfield :
LOGIN :

Register | Disclaimer

   EN    FR    IT 

 










Legend :    VFR   Marginal VFR   IFR   Intensive IFR   Very Intensive IFR
Visi :
Ceiling :
>= 8 km
>= 3000ft
5 to 8 km
1000 to 3000 ft
1500m to 5 km
500 to 1000 ft
800 to 1500m
200 to 500 ft
< 800m
< 200 ft
Symbols :   Thunderstorms  Fog  Heavy snow  Heavy precipitations  Wind > 20 kt
SIGMETs :     Misc.  Thunderstorms  Icing  Turbulence  Mountain Waves  Volcanic Ashes







- Airport Elevation : 778 ft
- IATA code : BRQ


LKTB - Brno-Turany

CURRENT METAR :
  • 211000Z 32004KT 9999 -RASN BKN018 OVC035 01/M01 Q1006 RESN R27/29//95 NOSIG

EXPIRED METARs :
  • 210930Z 33006KT 9000 -SN SCT014 OVC035 01/M01 Q1006 R27/29//95 NOSIG
  • 210920Z 33005KT 6000 -SN BKN014 OVC032 01/M00 Q1006 R27/591091 RMK REG QNH 1002
  • 210900Z 31005KT 3800 -SN BR SCT016 BKN035 OVC040 01/M00 Q1005 R27/591091 NOSIG
  • 210830Z 33003KT 3100 -SN BR OVC015 00/M00 Q1005 R27/591091 NOSIG
  • 210800Z 33002KT 3100 -SN BR FEW010 BKN013 OVC035 00/M00 Q1004 R27/591091 NOSIG
  • 210730Z VRB02KT 2500 -SN BR FEW008 BKN012 OVC018 00/M00 Q1004 R27/591091 NOSIG

TAF TAF LKTB
Valid from the 21 at 06:00 until the 22 at 12:00 UTC


210500Z 2106/2212 07010KT 8000 BKN015
TEMPO 2106/2112 2500 SN BR BKN010
BECMG 2108/2110 34008KT
BECMG 2112/2115 9999 SCT040
BECMG 2205/2206 VRB02KT
No reported NOTAMs for that airfield.



MET'MAP, your aeronautical weather chart ! - Copyright ORBIFLY December 2007 - Disclaimer

ORBIFLY MET'MAP TEAM :

Programming & Development : Alexandra Zaïnal
Concept & Development : Baudouin d'Aumeries
Co-Development & Prog : Marc-Olivier Méhu
Technical & hardware support : Manuel Goepfert

Contact : metmap@orbifly.com




SOURCES & CREDITS :

   NOAA